Search for airport 
image banner adimage banner adimage banner ad
image banner ad

52CL - Adelanto

Located in Adelanto, United States

ICAO - 52CL, IATA -

Data provided by Airmate  

General information

Coordinates: N34°32'15" W117°27'38"
Elevation is 3075 feet MSL.
Magnetic variation is 14° East
View others Airports in California

Operational data

Special qualification required
Current time UTC:
Current local time:
METAR: KVCV 210145Z AUTO 01008KT 10SM CLR 29/M02 A3005
View NOTAMs / SUP AIP / TFR affecting this airport [VIEW]
Communications frequencies: [VIEW]

Runways:

RWY identifierQFULength (ft)Width (ft)SurfaceLDA (ft)
E5100100EARTH
W5100100EARTH
N3930100EARTH
S3930100EARTH

Airport contact information

Address: Adelanto United States

Satellite view of 52CL